createdAt,value
2018-09-30T00:00:17.138Z,16.70
2018-09-30T00:01:17.083Z,23.90
2018-09-30T00:02:38.099Z,38.60
2018-09-30T00:03:38.091Z,45.10
2018-09-30T00:04:17.068Z,20.90
2018-09-30T00:05:17.550Z,19.00
2018-09-30T00:06:17.052Z,18.00
2018-09-30T00:07:38.066Z,37.70
2018-09-30T00:08:38.042Z,32.60
2018-09-30T00:09:17.074Z,19.50
2018-09-30T00:10:17.026Z,10.80
2018-09-30T00:11:17.013Z,10.80
2018-09-30T00:12:38.029Z,12.90
2018-09-30T00:13:38.451Z,12.20
2018-09-30T00:14:17.029Z,15.00
2018-09-30T00:15:17.096Z,23.50
2018-09-30T00:16:17.010Z,19.60
2018-09-30T00:17:38.012Z,18.30
2018-09-30T00:18:38.004Z,16.70
2018-09-30T00:19:16.972Z,17.50
2018-09-30T00:20:16.971Z,58.70
2018-09-30T00:21:16.967Z,30.10
2018-09-30T00:22:37.961Z,37.30
2018-09-30T00:23:38.923Z,13.40
2018-09-30T00:24:17.032Z,24.80
2018-09-30T00:25:17.009Z,18.00
2018-09-30T00:26:16.928Z,9.70
2018-09-30T00:27:37.933Z,14.30
2018-09-30T00:28:37.936Z,11.20
2018-09-30T00:29:16.911Z,12.70
2018-09-30T00:30:16.905Z,14.20
2018-09-30T00:31:16.900Z,13.80
2018-09-30T00:32:38.074Z,12.10
2018-09-30T00:33:37.837Z,17.70
2018-09-30T00:34:16.850Z,25.90
2018-09-30T00:35:16.879Z,24.60
2018-09-30T00:36:16.915Z,25.70
2018-09-30T00:37:37.838Z,21.70
2018-09-30T00:38:37.834Z,19.10
2018-09-30T00:39:16.820Z,19.70
2018-09-30T00:40:16.816Z,30.20
2018-09-30T00:41:16.794Z,33.70
2018-09-30T00:42:37.833Z,39.10
2018-09-30T00:43:37.797Z,21.60
2018-09-30T00:44:16.781Z,49.90
2018-09-30T00:45:16.825Z,18.30
2018-09-30T00:46:16.780Z,25.00
2018-09-30T00:47:38.141Z,23.00
2018-09-30T00:48:38.100Z,19.70
2018-09-30T00:49:16.926Z,21.70
2018-09-30T00:50:16.719Z,38.10
2018-09-30T00:51:16.919Z,18.00
2018-09-30T00:52:37.739Z,39.90
2018-09-30T00:53:37.723Z,52.00
2018-09-30T00:54:16.721Z,105.10
2018-09-30T00:55:17.408Z,52.70
2018-09-30T00:56:16.705Z,46.20
2018-09-30T00:57:37.705Z,33.70
2018-09-30T00:58:37.700Z,18.80
2018-09-30T00:59:16.695Z,13.00
2018-09-30T01:00:16.677Z,15.60
2018-09-30T01:01:16.664Z,11.70
2018-09-30T01:02:37.666Z,19.70
2018-09-30T01:03:37.663Z,23.10
2018-09-30T01:04:17.339Z,24.40
2018-09-30T01:05:16.694Z,22.40
2018-09-30T01:06:16.628Z,24.70
2018-09-30T01:07:37.637Z,19.20
2018-09-30T01:08:37.630Z,13.60
2018-09-30T01:09:16.610Z,21.10
2018-09-30T01:10:16.655Z,14.10
2018-09-30T01:11:16.599Z,8.60
2018-09-30T01:12:37.614Z,28.30
2018-09-30T01:13:37.592Z,12.10
2018-09-30T01:14:16.588Z,16.00
2018-09-30T01:15:16.601Z,15.30
2018-09-30T01:16:16.586Z,15.70
2018-09-30T01:17:37.560Z,17.50
2018-09-30T01:18:37.555Z,14.50
2018-09-30T01:19:16.535Z,11.00
2018-09-30T01:20:16.528Z,16.30
2018-09-30T01:21:16.535Z,17.80
2018-09-30T01:22:37.635Z,10.80
2018-09-30T01:23:37.651Z,15.50
2018-09-30T01:24:16.587Z,17.60
2018-09-30T01:25:16.579Z,51.30
2018-09-30T01:26:17.584Z,21.60
2018-09-30T01:27:37.569Z,15.00
2018-09-30T01:28:37.476Z,12.80
2018-09-30T01:29:16.467Z,8.20
2018-09-30T01:30:16.454Z,7.10
2018-09-30T01:31:16.440Z,12.90
2018-09-30T01:32:37.416Z,10.80
2018-09-30T01:33:37.453Z,10.70
2018-09-30T01:34:16.461Z,12.10
2018-09-30T01:35:16.472Z,26.30
2018-09-30T01:36:16.432Z,26.20
2018-09-30T01:37:37.407Z,37.70
2018-09-30T01:38:37.401Z,72.00
2018-09-30T01:39:16.392Z,49.90
2018-09-30T01:40:16.388Z,67.30
2018-09-30T01:41:16.368Z,32.20
2018-09-30T01:42:37.370Z,10.80
2018-09-30T01:43:37.377Z,12.60
2018-09-30T01:44:16.351Z,13.50
2018-09-30T01:45:16.376Z,16.70
2018-09-30T01:46:16.370Z,9.70
2018-09-30T01:47:37.375Z,25.80
2018-09-30T01:48:37.299Z,44.10
2018-09-30T01:49:16.309Z,74.50
2018-09-30T01:50:16.313Z,30.30
2018-09-30T01:51:16.296Z,15.50
2018-09-30T01:52:37.286Z,18.30
2018-09-30T01:53:37.278Z,22.60
2018-09-30T01:54:16.253Z,13.20
2018-09-30T01:55:16.263Z,23.40
2018-09-30T01:56:16.256Z,37.70
2018-09-30T01:57:37.261Z,18.90
2018-09-30T01:58:37.264Z,16.50
2018-09-30T01:59:16.230Z,14.20
2018-09-30T02:00:16.244Z,14.30
2018-09-30T02:01:16.229Z,12.60
2018-09-30T02:02:37.223Z,11.20
2018-09-30T02:03:37.215Z,9.60
2018-09-30T02:04:16.201Z,10.20
2018-09-30T02:05:16.280Z,8.40
2018-09-30T02:06:16.213Z,10.90
2018-09-30T02:07:38.172Z,10.70
2018-09-30T02:08:37.221Z,17.20
2018-09-30T02:09:16.141Z,17.60
2018-09-30T02:10:16.150Z,29.10
2018-09-30T02:11:16.150Z,17.60
2018-09-30T02:12:37.145Z,34.80
2018-09-30T02:13:37.147Z,19.20
2018-09-30T02:14:16.111Z,11.50
2018-09-30T02:15:16.125Z,13.50
2018-09-30T02:16:16.099Z,9.70
2018-09-30T02:17:37.097Z,7.00
2018-09-30T02:18:37.100Z,8.10
2018-09-30T02:19:16.082Z,10.30
2018-09-30T02:20:16.074Z,11.90
2018-09-30T02:21:16.069Z,16.00
2018-09-30T02:22:37.059Z,11.50
2018-09-30T02:23:37.058Z,16.30
2018-09-30T02:24:16.036Z,12.20
2018-09-30T02:25:16.074Z,12.30
2018-09-30T02:26:16.030Z,20.20
2018-09-30T02:27:37.030Z,22.00
2018-09-30T02:28:37.010Z,18.60
2018-09-30T02:29:16.009Z,22.10
2018-09-30T02:30:15.974Z,16.60
2018-09-30T02:31:15.993Z,9.60
2018-09-30T02:32:36.983Z,8.40
2018-09-30T02:33:36.987Z,7.80
2018-09-30T02:34:15.971Z,6.80
2018-09-30T02:35:15.933Z,9.60
2018-09-30T02:36:15.958Z,10.60
2018-09-30T02:37:36.945Z,9.10
2018-09-30T02:38:36.966Z,11.20
2018-09-30T02:39:15.895Z,8.10
2018-09-30T02:40:15.919Z,8.30
2018-09-30T02:41:15.880Z,9.10
2018-09-30T02:42:36.909Z,15.30
2018-09-30T02:43:36.897Z,15.20
2018-09-30T02:44:15.859Z,9.60
2018-09-30T02:45:15.920Z,8.10
2018-09-30T02:46:15.893Z,8.70
2018-09-30T02:47:36.868Z,8.10
2018-09-30T02:48:36.850Z,8.10
2018-09-30T02:49:15.842Z,7.40
2018-09-30T02:50:15.850Z,9.40
2018-09-30T02:51:15.827Z,7.20
2018-09-30T02:52:36.834Z,7.00
2018-09-30T02:53:36.817Z,8.80
2018-09-30T02:54:15.799Z,9.30
2018-09-30T02:55:15.883Z,9.30
2018-09-30T02:56:15.780Z,6.40
2018-09-30T02:57:36.787Z,7.60
2018-09-30T02:58:36.772Z,7.70
2018-09-30T02:59:15.766Z,10.00
2018-09-30T03:00:15.763Z,7.00
2018-09-30T03:01:15.743Z,10.60
2018-09-30T03:02:36.739Z,9.20
2018-09-30T03:03:36.733Z,9.10
2018-09-30T03:04:15.721Z,8.80
2018-09-30T03:05:15.728Z,9.50
2018-09-30T03:06:15.746Z,7.20
2018-09-30T03:07:36.697Z,9.40
2018-09-30T03:08:37.082Z,8.10
2018-09-30T03:09:15.688Z,9.40
2018-09-30T03:10:15.679Z,8.40
2018-09-30T03:11:15.637Z,6.70
2018-09-30T03:12:36.665Z,9.00
2018-09-30T03:13:36.654Z,8.70
2018-09-30T03:14:15.647Z,9.00
2018-09-30T03:15:15.638Z,8.40
2018-09-30T03:16:15.618Z,9.40
2018-09-30T03:17:36.625Z,9.20
2018-09-30T03:18:36.665Z,8.10
2018-09-30T03:19:15.597Z,10.80
2018-09-30T03:20:15.591Z,8.60
2018-09-30T03:21:15.593Z,7.50
2018-09-30T03:22:36.579Z,9.90
2018-09-30T03:23:36.570Z,7.40
2018-09-30T03:24:15.561Z,9.40
2018-09-30T03:25:15.559Z,9.00
2018-09-30T03:26:15.543Z,7.70
2018-09-30T03:27:36.538Z,7.70
2018-09-30T03:28:36.531Z,9.80
2018-09-30T03:29:15.528Z,9.90
2018-09-30T03:30:15.492Z,7.90
2018-09-30T03:31:15.497Z,7.90
2018-09-30T03:32:36.504Z,8.20
2018-09-30T03:33:36.493Z,6.40
2018-09-30T03:34:15.484Z,12.20
2018-09-30T03:35:15.467Z,11.70
2018-09-30T03:36:15.469Z,7.10
2018-09-30T03:37:36.453Z,9.20
2018-09-30T03:38:36.445Z,7.70
2018-09-30T03:39:15.441Z,8.40
2018-09-30T03:40:15.447Z,8.30
2018-09-30T03:41:15.424Z,8.00
2018-09-30T03:42:36.422Z,8.20
2018-09-30T03:43:36.409Z,9.10
2018-09-30T03:44:15.393Z,6.80
2018-09-30T03:45:15.405Z,9.10
2018-09-30T03:46:15.360Z,10.50
2018-09-30T03:47:36.359Z,9.30
2018-09-30T03:48:36.359Z,11.30
2018-09-30T03:49:15.368Z,11.30
2018-09-30T03:50:15.344Z,8.60
2018-09-30T03:51:15.332Z,7.30
2018-09-30T03:52:36.414Z,8.10
2018-09-30T03:53:36.328Z,7.50
2018-09-30T03:54:15.318Z,6.90
2018-09-30T03:55:15.289Z,8.40
2018-09-30T03:56:15.298Z,6.40
2018-09-30T03:57:36.289Z,9.00
2018-09-30T03:58:36.287Z,10.90
2018-09-30T03:59:15.720Z,7.50
2018-09-30T04:00:15.270Z,9.10
2018-09-30T04:01:15.262Z,9.10
2018-09-30T04:02:36.258Z,13.00
2018-09-30T04:03:36.249Z,10.90
2018-09-30T04:04:15.233Z,8.90
2018-09-30T04:05:15.218Z,7.60
2018-09-30T04:06:15.211Z,8.40
2018-09-30T04:07:36.210Z,9.10
2018-09-30T04:08:36.207Z,8.40
2018-09-30T04:09:15.179Z,10.50
2018-09-30T04:10:15.173Z,7.80
2018-09-30T04:11:15.168Z,7.80
2018-09-30T04:12:36.164Z,7.90
2018-09-30T04:13:36.125Z,13.60
2018-09-30T04:14:15.161Z,9.90
2018-09-30T04:15:15.137Z,8.80
2018-09-30T04:16:15.117Z,7.70
2018-09-30T04:17:36.127Z,8.90
2018-09-30T04:18:36.114Z,9.60
2018-09-30T04:19:15.096Z,7.90
2018-09-30T04:20:15.101Z,9.00
2018-09-30T04:21:15.095Z,11.70
2018-09-30T04:22:36.096Z,9.80
2018-09-30T04:23:36.064Z,7.70
2018-09-30T04:24:15.059Z,12.40
2018-09-30T04:25:15.066Z,8.80
2018-09-30T04:26:15.051Z,8.20
2018-09-30T04:27:36.035Z,8.70
2018-09-30T04:28:36.039Z,7.00
2018-09-30T04:29:15.009Z,10.90
2018-09-30T04:30:15.956Z,7.60
2018-09-30T04:31:14.998Z,7.70
2018-09-30T04:32:35.998Z,11.10
2018-09-30T04:33:35.999Z,10.50
2018-09-30T04:34:14.988Z,8.70
2018-09-30T04:35:14.964Z,8.40
2018-09-30T04:36:14.963Z,8.80
2018-09-30T04:37:35.961Z,7.50
2018-09-30T04:38:35.946Z,9.30
2018-09-30T04:39:14.948Z,11.10
2018-09-30T04:40:14.931Z,8.70
2018-09-30T04:41:14.918Z,12.10
2018-09-30T04:42:35.923Z,7.60
2018-09-30T04:43:35.912Z,8.30
2018-09-30T04:44:14.910Z,7.20
2018-09-30T04:45:14.888Z,8.40
2018-09-30T04:46:14.845Z,8.90
2018-09-30T04:47:35.863Z,10.10
2018-09-30T04:48:35.865Z,9.20
2018-09-30T04:49:14.866Z,9.30
2018-09-30T04:50:14.843Z,7.00
2018-09-30T04:51:14.832Z,11.00
2018-09-30T04:52:35.831Z,10.70
2018-09-30T04:53:35.826Z,6.70
2018-09-30T04:54:14.812Z,11.80
2018-09-30T04:55:14.853Z,8.70
2018-09-30T04:56:14.791Z,11.20
2018-09-30T04:57:35.838Z,10.40
2018-09-30T04:58:35.774Z,9.00
2018-09-30T04:59:14.757Z,7.70
2018-09-30T05:00:14.747Z,9.80
2018-09-30T05:01:14.743Z,11.10
2018-09-30T05:02:35.746Z,7.60
2018-09-30T05:03:35.730Z,8.50
2018-09-30T05:04:14.713Z,8.40
2018-09-30T05:05:14.710Z,9.40
2018-09-30T05:06:14.698Z,8.00
2018-09-30T05:07:35.690Z,7.40
2018-09-30T05:08:35.679Z,9.00
2018-09-30T05:09:14.678Z,10.60
2018-09-30T05:10:14.679Z,8.00
2018-09-30T05:11:14.666Z,8.60
2018-09-30T05:12:35.653Z,6.60
2018-09-30T05:13:35.637Z,7.20
2018-09-30T05:14:14.635Z,9.70
2018-09-30T05:15:14.629Z,9.50
2018-09-30T05:16:14.660Z,9.40
2018-09-30T05:17:35.620Z,12.10
2018-09-30T05:18:35.584Z,9.30
2018-09-30T05:19:14.605Z,11.40
2018-09-30T05:20:14.582Z,7.00
2018-09-30T05:21:14.583Z,8.30
2018-09-30T05:22:35.575Z,9.20
2018-09-30T05:23:35.554Z,7.50
2018-09-30T05:24:14.525Z,11.10
2018-09-30T05:25:14.562Z,10.10
2018-09-30T05:26:14.509Z,9.90
2018-09-30T05:27:35.520Z,9.70
2018-09-30T05:28:35.512Z,11.90
2018-09-30T05:29:14.512Z,9.10
2018-09-30T05:30:14.492Z,12.10
2018-09-30T05:31:14.935Z,10.80
2018-09-30T05:32:35.471Z,10.70
2018-09-30T05:33:35.478Z,14.00
2018-09-30T05:34:14.462Z,10.20
2018-09-30T05:35:14.457Z,13.80
2018-09-30T05:36:14.440Z,11.20
2018-09-30T05:37:35.436Z,12.20
2018-09-30T05:38:35.431Z,8.50
2018-09-30T05:39:14.411Z,11.90
2018-09-30T05:40:14.399Z,11.00
2018-09-30T05:41:14.394Z,10.90
2018-09-30T05:42:35.370Z,15.00
2018-09-30T05:43:35.385Z,9.90
2018-09-30T05:44:14.381Z,8.90
2018-09-30T05:45:14.360Z,9.80
2018-09-30T05:46:14.335Z,9.30
2018-09-30T05:47:35.345Z,10.20
2018-09-30T05:48:35.339Z,7.30
2018-09-30T05:49:14.377Z,8.30
2018-09-30T05:50:14.290Z,8.10
2018-09-30T05:51:14.308Z,9.10
2018-09-30T05:52:35.310Z,7.80
2018-09-30T05:53:35.293Z,8.30
2018-09-30T05:54:14.288Z,10.50
2018-09-30T05:55:14.341Z,10.50
2018-09-30T05:56:14.267Z,11.10
2018-09-30T05:57:35.279Z,7.90
2018-09-30T05:58:35.249Z,8.30
2018-09-30T05:59:14.235Z,7.90
2018-09-30T06:00:14.227Z,8.50
2018-09-30T06:01:14.229Z,8.10
2018-09-30T06:02:35.195Z,12.30
2018-09-30T06:03:35.206Z,8.10
2018-09-30T06:04:14.194Z,9.10
2018-09-30T06:05:14.205Z,11.80
2018-09-30T06:06:14.183Z,8.30
2018-09-30T06:07:35.176Z,11.40
2018-09-30T06:08:35.173Z,8.00
2018-09-30T06:09:14.215Z,6.90
2018-09-30T06:10:14.122Z,7.50
2018-09-30T06:11:14.135Z,9.60
2018-09-30T06:12:35.417Z,8.80
2018-09-30T06:13:35.133Z,7.10
2018-09-30T06:14:14.226Z,7.70
2018-09-30T06:15:14.128Z,8.90
2018-09-30T06:16:14.099Z,8.80
2018-09-30T06:17:35.102Z,6.80
2018-09-30T06:18:35.080Z,9.90
2018-09-30T06:19:14.080Z,8.30
2018-09-30T06:20:14.062Z,9.60
2018-09-30T06:21:14.046Z,6.70
2018-09-30T06:22:35.064Z,9.00
2018-09-30T06:23:35.047Z,10.30
2018-09-30T06:24:14.115Z,9.10
2018-09-30T06:25:14.042Z,10.30
2018-09-30T06:26:14.025Z,6.80
2018-09-30T06:27:35.000Z,8.10
2018-09-30T06:28:35.000Z,10.90
2018-09-30T06:29:13.989Z,10.70
2018-09-30T06:30:13.977Z,12.20
2018-09-30T06:31:13.964Z,11.10
2018-09-30T06:32:34.973Z,10.00
2018-09-30T06:33:34.963Z,10.50
2018-09-30T06:34:13.948Z,8.50
2018-09-30T06:35:14.004Z,9.20
2018-09-30T06:36:13.895Z,12.90
2018-09-30T06:37:34.929Z,8.80
2018-09-30T06:38:34.926Z,10.40
2018-09-30T06:39:13.908Z,9.10
2018-09-30T06:40:13.942Z,8.80
2018-09-30T06:41:13.889Z,10.70
2018-09-30T06:42:34.877Z,7.80
2018-09-30T06:43:35.799Z,10.00
2018-09-30T06:44:13.859Z,9.00
2018-09-30T06:45:13.904Z,9.00
2018-09-30T06:46:13.839Z,8.30
2018-09-30T06:47:34.834Z,11.50
2018-09-30T06:48:34.841Z,9.70
2018-09-30T06:49:13.812Z,8.70
2018-09-30T06:50:13.785Z,9.10
2018-09-30T06:51:13.815Z,12.80
2018-09-30T06:52:34.806Z,12.40
2018-09-30T06:53:34.768Z,10.00
2018-09-30T06:54:13.782Z,8.50
2018-09-30T06:55:13.780Z,8.50
2018-09-30T06:56:13.763Z,9.90
2018-09-30T06:57:34.751Z,8.70
2018-09-30T06:58:34.752Z,8.70
2018-09-30T06:59:13.716Z,10.60
2018-09-30T07:00:13.747Z,8.60
2018-09-30T07:01:13.717Z,10.40
2018-09-30T07:02:34.683Z,11.80
2018-09-30T07:03:34.705Z,7.90
2018-09-30T07:04:13.682Z,9.70
2018-09-30T07:05:13.689Z,10.40
2018-09-30T07:06:13.685Z,9.40
2018-09-30T07:07:34.681Z,9.40
2018-09-30T07:08:34.685Z,9.40
2018-09-30T07:09:13.661Z,7.70
2018-09-30T07:10:13.652Z,13.30
2018-09-30T07:11:13.646Z,8.70
2018-09-30T07:12:34.648Z,9.10
2018-09-30T07:13:34.640Z,18.60
2018-09-30T07:14:13.603Z,8.80
2018-09-30T07:15:13.668Z,8.20
2018-09-30T07:16:13.605Z,8.60
2018-09-30T07:17:34.612Z,9.80
2018-09-30T07:18:34.592Z,8.60
2018-09-30T07:19:13.595Z,8.10
2018-09-30T07:20:13.574Z,9.80
2018-09-30T07:21:13.575Z,9.10
2018-09-30T07:22:34.619Z,10.40
2018-09-30T07:23:34.576Z,7.20
2018-09-30T07:24:13.560Z,12.40
2018-09-30T07:25:13.534Z,6.50
2018-09-30T07:26:13.533Z,9.10
2018-09-30T07:27:34.531Z,11.30
2018-09-30T07:28:34.535Z,9.80
2018-09-30T07:29:13.505Z,7.30
2018-09-30T07:30:13.469Z,10.70
2018-09-30T07:31:13.485Z,12.20
2018-09-30T07:32:34.887Z,7.80
2018-09-30T07:33:34.509Z,6.10
2018-09-30T07:34:14.494Z,8.80
2018-09-30T07:35:13.451Z,9.00
2018-09-30T07:36:13.493Z,6.00
2018-09-30T07:37:34.464Z,6.10
2018-09-30T07:38:34.449Z,7.60
2018-09-30T07:39:13.438Z,8.10
2018-09-30T07:40:13.444Z,7.30
2018-09-30T07:41:13.414Z,6.80
2018-09-30T07:42:34.420Z,8.30
2018-09-30T07:43:34.422Z,6.10
2018-09-30T07:44:13.403Z,11.90
2018-09-30T07:45:13.408Z,5.30
2018-09-30T07:46:13.415Z,7.50
2018-09-30T07:47:34.400Z,7.10
2018-09-30T07:48:34.386Z,6.90
2018-09-30T07:49:13.364Z,7.40
2018-09-30T07:50:13.376Z,11.60
2018-09-30T07:51:13.361Z,7.70
2018-09-30T07:52:34.337Z,6.90
2018-09-30T07:53:34.348Z,9.30
2018-09-30T07:54:13.342Z,6.50
2018-09-30T07:55:13.327Z,6.50
2018-09-30T07:56:13.376Z,7.50
2018-09-30T07:57:34.313Z,9.50
2018-09-30T07:58:34.278Z,6.40
2018-09-30T07:59:13.298Z,10.10
2018-09-30T08:00:13.302Z,8.00
2018-09-30T08:01:13.304Z,8.70
2018-09-30T08:02:34.282Z,10.60
2018-09-30T08:03:34.285Z,10.00
2018-09-30T08:04:13.257Z,8.30
2018-09-30T08:05:13.294Z,7.10
2018-09-30T08:06:13.281Z,8.80
2018-09-30T08:07:34.243Z,7.40
2018-09-30T08:08:34.230Z,7.10
2018-09-30T08:09:13.222Z,7.40
2018-09-30T08:10:13.219Z,8.50
2018-09-30T08:11:13.199Z,6.80
2018-09-30T08:12:34.201Z,7.10
2018-09-30T08:13:34.200Z,11.40
2018-09-30T08:14:13.186Z,8.50
2018-09-30T08:15:13.261Z,6.70
2018-09-30T08:16:13.171Z,6.10
2018-09-30T08:17:34.195Z,6.50
2018-09-30T08:18:34.180Z,8.20
2018-09-30T08:19:13.160Z,5.10
2018-09-30T08:20:13.181Z,6.40
2018-09-30T08:21:13.153Z,9.60
2018-09-30T08:22:34.107Z,5.40
2018-09-30T08:23:34.145Z,8.70
2018-09-30T08:24:13.144Z,7.10
2018-09-30T08:25:13.095Z,8.80
2018-09-30T08:26:13.126Z,9.70
2018-09-30T08:27:34.114Z,11.30
2018-09-30T08:28:34.092Z,11.40
2018-09-30T08:29:13.096Z,28.00
2018-09-30T08:30:13.079Z,6.50
2018-09-30T08:31:13.079Z,13.10
2018-09-30T08:32:34.075Z,13.70
2018-09-30T08:33:34.063Z,15.30
2018-09-30T08:34:13.053Z,18.60
2018-09-30T08:35:13.243Z,13.60
2018-09-30T08:36:13.032Z,11.50
2018-09-30T08:37:34.044Z,9.70
2018-09-30T08:38:34.044Z,6.10
2018-09-30T08:39:13.027Z,8.40
2018-09-30T08:40:13.034Z,8.20
2018-09-30T08:41:12.998Z,8.80
2018-09-30T08:42:34.000Z,9.10
2018-09-30T08:43:33.977Z,6.90
2018-09-30T08:44:13.018Z,8.60
2018-09-30T08:45:12.990Z,8.80
2018-09-30T08:46:12.974Z,10.60
2018-09-30T08:47:34.015Z,11.30
2018-09-30T08:48:33.983Z,12.60
2018-09-30T08:49:13.003Z,12.50
2018-09-30T08:50:12.957Z,6.50
2018-09-30T08:51:12.954Z,11.00
2018-09-30T08:52:33.968Z,7.60
2018-09-30T08:53:33.937Z,7.40
2018-09-30T08:54:12.969Z,7.20
2018-09-30T08:55:13.013Z,9.60
2018-09-30T08:56:13.095Z,8.50
2018-09-30T08:57:36.043Z,6.30
2018-09-30T08:58:34.088Z,6.40
2018-09-30T08:59:13.086Z,5.80
2018-09-30T09:00:13.476Z,5.60
2018-09-30T09:01:13.229Z,7.80
2018-09-30T09:02:37.580Z,7.80
2018-09-30T09:03:36.622Z,10.80
2018-09-30T09:04:13.016Z,10.50
2018-09-30T09:05:13.361Z,11.40
2018-09-30T09:06:17.367Z,9.50
2018-09-30T09:07:36.608Z,6.20
2018-09-30T09:08:34.224Z,7.90
2018-09-30T09:09:13.773Z,5.20
2018-09-30T09:10:12.975Z,8.30
2018-09-30T09:11:13.009Z,7.90
2018-09-30T09:12:33.837Z,8.40
2018-09-30T09:13:34.824Z,7.90
2018-09-30T09:14:13.103Z,9.50
2018-09-30T09:15:12.831Z,8.70
2018-09-30T09:16:12.811Z,9.80
2018-09-30T09:17:33.804Z,8.90
2018-09-30T09:18:33.810Z,6.40
2018-09-30T09:19:12.834Z,5.90
2018-09-30T09:20:12.810Z,6.80
2018-09-30T09:21:12.811Z,5.40
2018-09-30T09:22:33.932Z,6.90
2018-09-30T09:23:33.943Z,8.20
2018-09-30T09:24:12.784Z,5.50
2018-09-30T09:25:12.871Z,8.50
2018-09-30T09:26:12.823Z,7.50
2018-09-30T09:27:33.874Z,6.60
2018-09-30T09:28:33.773Z,5.90
2018-09-30T09:29:12.829Z,5.40
2018-09-30T09:30:13.048Z,5.90
2018-09-30T09:31:12.896Z,5.10
2018-09-30T09:32:34.231Z,7.10
2018-09-30T09:33:34.188Z,9.50
2018-09-30T09:34:13.663Z,6.00
2018-09-30T09:35:14.354Z,6.70
2018-09-30T09:36:13.141Z,5.40
2018-09-30T09:37:33.883Z,4.80
2018-09-30T09:38:34.477Z,5.60
2018-09-30T09:39:12.704Z,4.80
2018-09-30T09:40:12.704Z,5.70
2018-09-30T09:41:12.686Z,5.30
2018-09-30T09:42:33.706Z,6.40
2018-09-30T09:43:33.699Z,4.90
2018-09-30T09:44:12.676Z,7.70
2018-09-30T09:45:12.688Z,8.30
2018-09-30T09:46:12.683Z,4.70
2018-09-30T09:47:34.135Z,2.90
2018-09-30T09:48:33.664Z,2.00
2018-09-30T09:49:12.658Z,3.20
2018-09-30T09:50:12.661Z,5.30
2018-09-30T09:51:12.646Z,5.80
2018-09-30T09:52:33.656Z,4.20
2018-09-30T09:53:33.633Z,3.40
2018-09-30T09:54:12.627Z,3.40
2018-09-30T09:55:12.592Z,4.60
2018-09-30T09:56:12.615Z,3.30
2018-09-30T09:57:33.648Z,6.60
2018-09-30T09:58:33.616Z,8.50
2018-09-30T09:59:12.687Z,5.90
2018-09-30T10:00:12.610Z,4.20
2018-09-30T10:01:12.598Z,6.80
2018-09-30T10:02:33.597Z,2.40
2018-09-30T10:03:33.594Z,3.10
2018-09-30T10:04:12.586Z,5.40
2018-09-30T10:05:12.649Z,4.70
2018-09-30T10:06:12.578Z,2.80
2018-09-30T10:07:33.599Z,4.10
2018-09-30T10:08:33.606Z,4.40
2018-09-30T10:09:12.563Z,4.40
2018-09-30T10:10:12.594Z,5.00
2018-09-30T10:11:12.531Z,7.60
2018-09-30T10:12:33.607Z,6.10
2018-09-30T10:13:33.556Z,3.10
2018-09-30T10:14:12.542Z,4.00
2018-09-30T10:15:12.549Z,6.80
2018-09-30T10:16:12.558Z,3.50
2018-09-30T10:17:33.551Z,3.90
2018-09-30T10:18:34.498Z,2.40
2018-09-30T10:19:12.520Z,3.10
2018-09-30T10:20:12.529Z,5.60
2018-09-30T10:21:12.547Z,4.10
2018-09-30T10:22:33.526Z,3.10
2018-09-30T10:23:33.536Z,4.30
2018-09-30T10:24:12.513Z,5.60
2018-09-30T10:25:12.517Z,14.70
2018-09-30T10:26:12.550Z,9.80
2018-09-30T10:27:33.500Z,4.30
2018-09-30T10:28:33.494Z,6.00
2018-09-30T10:29:12.494Z,3.10
2018-09-30T10:30:12.491Z,2.60
2018-09-30T10:31:12.471Z,3.30
2018-09-30T10:32:33.477Z,6.10
2018-09-30T10:33:33.495Z,4.50
2018-09-30T10:34:12.472Z,3.80
2018-09-30T10:35:12.473Z,3.60
2018-09-30T10:36:12.451Z,5.60
2018-09-30T10:37:33.495Z,5.00
2018-09-30T10:38:33.485Z,3.30
2018-09-30T10:39:12.558Z,4.90
2018-09-30T10:40:12.460Z,3.00
2018-09-30T10:41:12.445Z,6.80
2018-09-30T10:42:33.445Z,3.40
2018-09-30T10:43:33.471Z,3.20
2018-09-30T10:44:12.444Z,4.40
2018-09-30T10:45:12.429Z,3.50
2018-09-30T10:46:12.425Z,4.70
2018-09-30T10:47:33.425Z,5.10
2018-09-30T10:48:33.425Z,4.00
2018-09-30T10:49:12.416Z,5.70
2018-09-30T10:50:12.420Z,4.10
2018-09-30T10:51:12.408Z,4.50
2018-09-30T10:52:33.425Z,6.60
2018-09-30T10:53:33.408Z,5.40
2018-09-30T10:54:12.397Z,3.60
2018-09-30T10:55:12.409Z,2.20
2018-09-30T10:56:12.392Z,3.50
2018-09-30T10:57:33.386Z,3.60
2018-09-30T10:58:33.401Z,4.00
2018-09-30T10:59:12.377Z,4.40
2018-09-30T11:00:12.372Z,5.00
2018-09-30T11:01:12.391Z,3.40
2018-09-30T11:02:33.403Z,2.70
2018-09-30T11:03:33.482Z,3.90
2018-09-30T11:04:12.381Z,4.20
2018-09-30T11:05:12.350Z,2.70
2018-09-30T11:06:12.364Z,5.40
2018-09-30T11:07:33.372Z,2.90
2018-09-30T11:08:33.392Z,3.20
2018-09-30T11:09:13.174Z,3.30
2018-09-30T11:10:12.488Z,5.10
2018-09-30T11:11:12.415Z,8.30
2018-09-30T11:12:33.372Z,5.80
2018-09-30T11:13:33.371Z,5.60
2018-09-30T11:14:12.345Z,2.60
2018-09-30T11:15:12.351Z,3.70
2018-09-30T11:16:12.356Z,6.90
2018-09-30T11:17:33.338Z,3.90
2018-09-30T11:18:33.348Z,4.70
2018-09-30T11:19:12.334Z,3.90
2018-09-30T11:20:12.315Z,4.70
2018-09-30T11:21:12.329Z,2.80
2018-09-30T11:22:33.390Z,5.10
2018-09-30T11:23:33.321Z,3.00
2018-09-30T11:24:12.314Z,2.60
2018-09-30T11:25:12.313Z,3.60
2018-09-30T11:26:12.324Z,3.50
2018-09-30T11:27:33.357Z,2.90
2018-09-30T11:28:33.341Z,3.90
2018-09-30T11:29:12.305Z,3.60
2018-09-30T11:30:12.311Z,5.40
2018-09-30T11:31:12.353Z,5.00
2018-09-30T11:32:33.324Z,2.80
2018-09-30T11:33:33.330Z,3.60
2018-09-30T11:34:12.326Z,4.00
2018-09-30T11:35:12.284Z,3.50
2018-09-30T11:36:12.295Z,2.10
2018-09-30T11:37:33.290Z,2.40
2018-09-30T11:38:33.306Z,3.60
2018-09-30T11:39:12.300Z,5.80
2018-09-30T11:40:13.218Z,5.90
2018-09-30T11:41:12.281Z,6.00
2018-09-30T11:42:33.259Z,7.10
2018-09-30T11:43:33.297Z,5.30
2018-09-30T11:44:12.241Z,5.60
2018-09-30T11:45:12.282Z,5.20
2018-09-30T11:46:12.275Z,4.20
2018-09-30T11:47:33.291Z,1.70
2018-09-30T11:48:33.276Z,5.20
2018-09-30T11:49:12.276Z,7.30
2018-09-30T11:50:12.263Z,5.10
2018-09-30T11:51:12.263Z,3.80
2018-09-30T11:52:33.288Z,4.80
2018-09-30T11:53:33.251Z,4.00
2018-09-30T11:54:12.245Z,4.90
2018-09-30T11:55:12.275Z,4.80
2018-09-30T11:56:12.247Z,4.10
2018-09-30T11:57:33.292Z,4.80
2018-09-30T11:58:33.253Z,3.50
2018-09-30T11:59:12.233Z,5.10
2018-09-30T12:00:12.238Z,5.20
2018-09-30T12:01:12.249Z,3.40
2018-09-30T12:02:33.282Z,4.60
2018-09-30T12:03:33.326Z,3.10
2018-09-30T12:04:12.233Z,2.50
2018-09-30T12:05:12.224Z,5.00
2018-09-30T12:06:12.226Z,4.30
2018-09-30T12:07:33.228Z,3.70
2018-09-30T12:08:33.221Z,1.40
2018-09-30T12:09:12.218Z,4.80
2018-09-30T12:10:12.214Z,6.30
2018-09-30T12:11:12.180Z,13.90
2018-09-30T12:12:33.247Z,10.10
2018-09-30T12:13:33.234Z,12.30
2018-09-30T12:14:12.212Z,7.80
2018-09-30T12:15:12.207Z,4.80
2018-09-30T12:16:12.227Z,4.60
2018-09-30T12:17:33.209Z,3.40
2018-09-30T12:18:33.233Z,7.10
2018-09-30T12:19:12.200Z,6.90
2018-09-30T12:20:12.254Z,5.20
2018-09-30T12:21:12.276Z,8.60
2018-09-30T12:22:33.207Z,3.00
2018-09-30T12:23:33.203Z,5.00
2018-09-30T12:24:12.186Z,5.20
2018-09-30T12:25:12.186Z,5.30
2018-09-30T12:26:12.200Z,4.30
2018-09-30T12:27:33.213Z,3.10
2018-09-30T12:28:33.193Z,3.10
2018-09-30T12:29:12.170Z,4.40
2018-09-30T12:30:12.177Z,16.30
2018-09-30T12:31:12.208Z,6.20
2018-09-30T12:32:33.189Z,2.70
2018-09-30T12:33:33.188Z,2.60
2018-09-30T12:34:12.175Z,4.70
2018-09-30T12:35:12.174Z,2.50
2018-09-30T12:36:12.176Z,4.60
2018-09-30T12:37:33.177Z,6.70
2018-09-30T12:38:33.218Z,3.40
2018-09-30T12:39:12.177Z,2.10
2018-09-30T12:40:12.136Z,3.00
2018-09-30T12:41:12.351Z,4.00
2018-09-30T12:42:33.170Z,4.10
2018-09-30T12:43:33.167Z,4.30
2018-09-30T12:44:12.147Z,5.60
2018-09-30T12:45:12.163Z,2.80
2018-09-30T12:46:12.145Z,4.40
2018-09-30T12:47:33.142Z,7.10
2018-09-30T12:48:33.168Z,10.10
2018-09-30T12:49:12.158Z,3.50
2018-09-30T12:50:12.134Z,4.10
2018-09-30T12:51:12.154Z,4.90
2018-09-30T12:52:34.166Z,5.50
2018-09-30T12:53:33.152Z,3.70
2018-09-30T12:54:12.163Z,3.20
2018-09-30T12:55:12.197Z,5.40
2018-09-30T12:56:12.146Z,4.90
2018-09-30T12:57:33.178Z,2.70
2018-09-30T12:58:33.156Z,3.70
2018-09-30T12:59:12.464Z,2.50
2018-09-30T13:00:13.068Z,4.20
2018-09-30T13:01:12.231Z,4.30
2018-09-30T13:02:33.157Z,5.30
2018-09-30T13:03:33.148Z,3.50
2018-09-30T13:04:12.154Z,3.50
2018-09-30T13:05:12.136Z,3.30
2018-09-30T13:06:12.146Z,3.30
2018-09-30T13:07:33.140Z,3.30
2018-09-30T13:08:33.144Z,5.30
2018-09-30T13:09:13.249Z,3.80
2018-09-30T13:10:12.152Z,1.30